sensor_id;sensor_type;location;lat;lon;timestamp;P1;durP1;ratioP1;P2;durP2;ratioP2
24857;SDS011;12935;50.782;6.074;2022-10-17T00:01:05;896.47;;;860.07;;
24857;SDS011;12935;50.782;6.074;2022-10-17T00:03:32;959.77;;;919.47;;
24857;SDS011;12935;50.782;6.074;2022-10-17T00:05:57;898.73;;;863.50;;
24857;SDS011;12935;50.782;6.074;2022-10-17T00:08:23;1040.23;;;992.87;;
24857;SDS011;12935;50.782;6.074;2022-10-17T00:10:58;1023.00;;;980.33;;
24857;SDS011;12935;50.782;6.074;2022-10-17T00:13:25;976.77;;;936.37;;
24857;SDS011;12935;50.782;6.074;2022-10-17T00:15:51;945.40;;;905.50;;
24857;SDS011;12935;50.782;6.074;2022-10-17T00:18:16;982.83;;;941.83;;
24857;SDS011;12935;50.782;6.074;2022-10-17T00:20:42;1114.03;;;999.90;;
24857;SDS011;12935;50.782;6.074;2022-10-17T00:23:07;1117.70;;;999.90;;
24857;SDS011;12935;50.782;6.074;2022-10-17T00:25:32;936.10;;;890.37;;
24857;SDS011;12935;50.782;6.074;2022-10-17T00:27:58;1107.73;;;999.90;;
24857;SDS011;12935;50.782;6.074;2022-10-17T00:30:23;1092.13;;;999.90;;
24857;SDS011;12935;50.782;6.074;2022-10-17T00:32:48;1138.23;;;999.90;;
24857;SDS011;12935;50.782;6.074;2022-10-17T00:35:14;1132.47;;;999.90;;
24857;SDS011;12935;50.782;6.074;2022-10-17T00:37:39;1078.40;;;999.90;;
24857;SDS011;12935;50.782;6.074;2022-10-17T00:40:05;1117.03;;;999.90;;
24857;SDS011;12935;50.782;6.074;2022-10-17T00:42:31;1106.53;;;999.90;;
24857;SDS011;12935;50.782;6.074;2022-10-17T00:44:58;1105.30;;;999.90;;
24857;SDS011;12935;50.782;6.074;2022-10-17T00:47:37;1043.97;;;986.67;;
24857;SDS011;12935;50.782;6.074;2022-10-17T00:50:04;1198.70;;;999.90;;
24857;SDS011;12935;50.782;6.074;2022-10-17T00:52:30;1199.67;;;999.90;;
24857;SDS011;12935;50.782;6.074;2022-10-17T00:55:00;1221.97;;;999.90;;
24857;SDS011;12935;50.782;6.074;2022-10-17T00:57:35;1066.40;;;999.90;;
24857;SDS011;12935;50.782;6.074;2022-10-17T01:00:04;1144.83;;;999.90;;
24857;SDS011;12935;50.782;6.074;2022-10-17T01:02:32;1128.87;;;999.90;;
24857;SDS011;12935;50.782;6.074;2022-10-17T01:04:57;1151.87;;;999.90;;
24857;SDS011;12935;50.782;6.074;2022-10-17T01:07:23;1157.23;;;999.90;;
24857;SDS011;12935;50.782;6.074;2022-10-17T01:09:49;1151.17;;;999.90;;
24857;SDS011;12935;50.782;6.074;2022-10-17T01:27:53;1165.90;;;999.90;;
24857;SDS011;12935;50.782;6.074;2022-10-17T01:30:51;1167.37;;;999.90;;
24857;SDS011;12935;50.782;6.074;2022-10-17T01:33:34;1193.80;;;999.90;;
24857;SDS011;12935;50.782;6.074;2022-10-17T01:36:09;1166.80;;;999.90;;
24857;SDS011;12935;50.782;6.074;2022-10-17T01:38:43;1186.17;;;999.90;;
24857;SDS011;12935;50.782;6.074;2022-10-17T01:44:18;798.30;;;756.50;;
24857;SDS011;12935;50.782;6.074;2022-10-17T01:46:49;1168.67;;;999.90;;
24857;SDS011;12935;50.782;6.074;2022-10-17T01:49:20;1178.30;;;999.90;;
24857;SDS011;12935;50.782;6.074;2022-10-17T01:51:50;1179.60;;;999.90;;
24857;SDS011;12935;50.782;6.074;2022-10-17T01:54:31;1161.23;;;999.90;;
24857;SDS011;12935;50.782;6.074;2022-10-17T01:57:02;1190.83;;;999.90;;
24857;SDS011;12935;50.782;6.074;2022-10-17T01:59:33;1182.80;;;999.90;;
24857;SDS011;12935;50.782;6.074;2022-10-17T02:02:04;1171.83;;;999.90;;
24857;SDS011;12935;50.782;6.074;2022-10-17T02:04:31;1135.37;;;999.90;;
24857;SDS011;12935;50.782;6.074;2022-10-17T02:07:01;1186.57;;;999.90;;
24857;SDS011;12935;50.782;6.074;2022-10-17T02:09:30;1155.37;;;999.90;;
24857;SDS011;12935;50.782;6.074;2022-10-17T02:23:29;1177.70;;;999.90;;
24857;SDS011;12935;50.782;6.074;2022-10-17T02:26:31;1173.93;;;999.90;;
24857;SDS011;12935;50.782;6.074;2022-10-17T02:31:32;1167.90;;;999.90;;
24857;SDS011;12935;50.782;6.074;2022-10-17T02:34:26;1150.67;;;999.90;;
24857;SDS011;12935;50.782;6.074;2022-10-17T02:36:57;1177.30;;;999.90;;
24857;SDS011;12935;50.782;6.074;2022-10-17T02:39:26;1179.67;;;999.90;;
24857;SDS011;12935;50.782;6.074;2022-10-17T02:41:53;1171.57;;;999.90;;
24857;SDS011;12935;50.782;6.074;2022-10-17T02:44:20;1164.40;;;999.90;;
24857;SDS011;12935;50.782;6.074;2022-10-17T02:46:50;1178.37;;;999.90;;
24857;SDS011;12935;50.782;6.074;2022-10-17T02:49:28;1178.83;;;999.90;;
24857;SDS011;12935;50.782;6.074;2022-10-17T02:52:14;1190.70;;;999.90;;
24857;SDS011;12935;50.782;6.074;2022-10-17T02:55:08;1186.20;;;999.90;;
24857;SDS011;12935;50.782;6.074;2022-10-17T02:57:40;1172.13;;;999.90;;
24857;SDS011;12935;50.782;6.074;2022-10-17T03:00:11;1181.37;;;999.90;;
24857;SDS011;12935;50.782;6.074;2022-10-17T03:02:42;1179.57;;;999.90;;
24857;SDS011;12935;50.782;6.074;2022-10-17T03:05:10;1167.13;;;999.90;;
24857;SDS011;12935;50.782;6.074;2022-10-17T03:07:37;1183.27;;;999.90;;
24857;SDS011;12935;50.782;6.074;2022-10-17T03:10:03;1164.60;;;999.90;;
24857;SDS011;12935;50.782;6.074;2022-10-17T03:12:29;970.70;;;922.60;;
24857;SDS011;12935;50.782;6.074;2022-10-17T03:14:54;1169.43;;;999.90;;
24857;SDS011;12935;50.782;6.074;2022-10-17T03:17:19;1181.67;;;999.90;;
24857;SDS011;12935;50.782;6.074;2022-10-17T03:19:45;1180.97;;;999.90;;
24857;SDS011;12935;50.782;6.074;2022-10-17T03:22:10;1187.47;;;999.90;;
24857;SDS011;12935;50.782;6.074;2022-10-17T03:24:36;1184.03;;;999.90;;
24857;SDS011;12935;50.782;6.074;2022-10-17T03:27:01;1169.03;;;999.90;;
24857;SDS011;12935;50.782;6.074;2022-10-17T03:29:26;1182.53;;;999.90;;
24857;SDS011;12935;50.782;6.074;2022-10-17T03:31:51;1176.43;;;999.90;;
24857;SDS011;12935;50.782;6.074;2022-10-17T03:34:17;1176.93;;;999.90;;
24857;SDS011;12935;50.782;6.074;2022-10-17T03:36:43;1170.70;;;999.90;;
24857;SDS011;12935;50.782;6.074;2022-10-17T03:39:08;1144.63;;;999.90;;
24857;SDS011;12935;50.782;6.074;2022-10-17T03:41:33;1182.73;;;999.90;;
24857;SDS011;12935;50.782;6.074;2022-10-17T03:43:59;1168.83;;;999.90;;
24857;SDS011;12935;50.782;6.074;2022-10-17T03:46:24;1164.13;;;999.90;;
24857;SDS011;12935;50.782;6.074;2022-10-17T03:48:50;1166.60;;;999.90;;
24857;SDS011;12935;50.782;6.074;2022-10-17T03:51:15;1181.97;;;999.90;;
24857;SDS011;12935;50.782;6.074;2022-10-17T03:53:40;1026.33;;;977.07;;
24857;SDS011;12935;50.782;6.074;2022-10-17T03:56:13;1181.63;;;999.90;;
24857;SDS011;12935;50.782;6.074;2022-10-17T03:58:40;1172.83;;;999.90;;
24857;SDS011;12935;50.782;6.074;2022-10-17T04:01:07;1143.13;;;999.90;;
24857;SDS011;12935;50.782;6.074;2022-10-17T04:03:33;1177.03;;;999.90;;
24857;SDS011;12935;50.782;6.074;2022-10-17T04:05:59;1152.00;;;999.90;;
24857;SDS011;12935;50.782;6.074;2022-10-17T04:08:27;1174.57;;;999.90;;
24857;SDS011;12935;50.782;6.074;2022-10-17T04:10:57;1175.57;;;999.90;;
24857;SDS011;12935;50.782;6.074;2022-10-17T04:13:26;1161.97;;;999.90;;
24857;SDS011;12935;50.782;6.074;2022-10-17T04:15:53;1146.00;;;999.90;;
24857;SDS011;12935;50.782;6.074;2022-10-17T04:18:19;1169.50;;;999.90;;
24857;SDS011;12935;50.782;6.074;2022-10-17T04:20:44;925.53;;;879.37;;
24857;SDS011;12935;50.782;6.074;2022-10-17T04:23:09;1146.17;;;999.90;;
24857;SDS011;12935;50.782;6.074;2022-10-17T04:25:35;1176.97;;;999.90;;
24857;SDS011;12935;50.782;6.074;2022-10-17T04:28:00;1161.73;;;999.90;;
24857;SDS011;12935;50.782;6.074;2022-10-17T04:30:25;1154.07;;;999.90;;
24857;SDS011;12935;50.782;6.074;2022-10-17T04:32:51;1162.87;;;999.90;;
24857;SDS011;12935;50.782;6.074;2022-10-17T04:35:16;790.03;;;746.40;;
24857;SDS011;12935;50.782;6.074;2022-10-17T04:37:41;1170.83;;;999.90;;
24857;SDS011;12935;50.782;6.074;2022-10-17T04:40:06;1163.87;;;999.90;;
24857;SDS011;12935;50.782;6.074;2022-10-17T04:42:32;1138.33;;;999.90;;
24857;SDS011;12935;50.782;6.074;2022-10-17T04:44:58;1133.93;;;999.90;;
24857;SDS011;12935;50.782;6.074;2022-10-17T04:47:23;1134.07;;;999.90;;
24857;SDS011;12935;50.782;6.074;2022-10-17T04:49:48;1129.50;;;999.90;;
24857;SDS011;12935;50.782;6.074;2022-10-17T04:52:13;1140.83;;;999.90;;
24857;SDS011;12935;50.782;6.074;2022-10-17T04:54:39;1159.93;;;999.90;;
24857;SDS011;12935;50.782;6.074;2022-10-17T04:57:04;1137.70;;;999.90;;
24857;SDS011;12935;50.782;6.074;2022-10-17T04:59:29;1143.83;;;999.90;;
24857;SDS011;12935;50.782;6.074;2022-10-17T05:01:55;1149.30;;;999.90;;
24857;SDS011;12935;50.782;6.074;2022-10-17T05:04:20;1118.90;;;999.90;;
24857;SDS011;12935;50.782;6.074;2022-10-17T05:06:45;1139.77;;;999.90;;
24857;SDS011;12935;50.782;6.074;2022-10-17T05:09:11;1109.17;;;999.90;;
24857;SDS011;12935;50.782;6.074;2022-10-17T05:11:36;1140.03;;;999.90;;
24857;SDS011;12935;50.782;6.074;2022-10-17T05:14:01;1140.83;;;999.90;;
24857;SDS011;12935;50.782;6.074;2022-10-17T05:16:27;1143.50;;;999.90;;
24857;SDS011;12935;50.782;6.074;2022-10-17T05:18:54;1060.67;;;999.50;;
24857;SDS011;12935;50.782;6.074;2022-10-17T05:21:22;1138.97;;;999.90;;
24857;SDS011;12935;50.782;6.074;2022-10-17T05:23:48;1134.43;;;999.90;;
24857;SDS011;12935;50.782;6.074;2022-10-17T05:26:14;1123.97;;;999.90;;
24857;SDS011;12935;50.782;6.074;2022-10-17T05:28:39;1128.10;;;999.90;;
24857;SDS011;12935;50.782;6.074;2022-10-17T05:31:05;1093.27;;;999.90;;
24857;SDS011;12935;50.782;6.074;2022-10-17T05:33:31;1085.17;;;999.90;;
24857;SDS011;12935;50.782;6.074;2022-10-17T05:35:58;1085.53;;;999.90;;
24857;SDS011;12935;50.782;6.074;2022-10-17T05:38:24;1094.73;;;999.90;;
24857;SDS011;12935;50.782;6.074;2022-10-17T05:40:49;1065.70;;;999.90;;
24857;SDS011;12935;50.782;6.074;2022-10-17T05:43:15;1068.57;;;999.90;;
24857;SDS011;12935;50.782;6.074;2022-10-17T05:45:40;1088.87;;;999.90;;
24857;SDS011;12935;50.782;6.074;2022-10-17T05:48:06;1065.40;;;999.90;;
24857;SDS011;12935;50.782;6.074;2022-10-17T05:50:32;1081.17;;;999.90;;
24857;SDS011;12935;50.782;6.074;2022-10-17T05:52:58;1133.03;;;999.90;;
24857;SDS011;12935;50.782;6.074;2022-10-17T05:55:23;1031.73;;;988.63;;
24857;SDS011;12935;50.782;6.074;2022-10-17T05:57:49;1053.43;;;999.90;;
24857;SDS011;12935;50.782;6.074;2022-10-17T06:00:16;1031.13;;;985.37;;
24857;SDS011;12935;50.782;6.074;2022-10-17T06:02:42;1026.60;;;983.67;;
24857;SDS011;12935;50.782;6.074;2022-10-17T06:05:09;1041.53;;;996.00;;
24857;SDS011;12935;50.782;6.074;2022-10-17T06:07:35;1015.43;;;969.30;;
24857;SDS011;12935;50.782;6.074;2022-10-17T06:10:00;978.33;;;937.27;;
24857;SDS011;12935;50.782;6.074;2022-10-17T06:12:25;1011.33;;;967.87;;
24857;SDS011;12935;50.782;6.074;2022-10-17T06:14:51;967.10;;;926.20;;
24857;SDS011;12935;50.782;6.074;2022-10-17T06:17:16;991.50;;;949.00;;
24857;SDS011;12935;50.782;6.074;2022-10-17T06:19:41;944.60;;;905.83;;
24857;SDS011;12935;50.782;6.074;2022-10-17T06:22:08;940.53;;;900.37;;
24857;SDS011;12935;50.782;6.074;2022-10-17T06:24:33;978.07;;;933.00;;
24857;SDS011;12935;50.782;6.074;2022-10-17T06:26:59;876.27;;;841.13;;
24857;SDS011;12935;50.782;6.074;2022-10-17T06:29:24;884.00;;;848.70;;
24857;SDS011;12935;50.782;6.074;2022-10-17T06:31:49;861.70;;;826.97;;
24857;SDS011;12935;50.782;6.074;2022-10-17T06:34:15;844.13;;;810.53;;
24857;SDS011;12935;50.782;6.074;2022-10-17T06:36:40;788.00;;;756.87;;
24857;SDS011;12935;50.782;6.074;2022-10-17T06:39:06;836.63;;;802.07;;
24857;SDS011;12935;50.782;6.074;2022-10-17T06:41:31;772.20;;;742.47;;
24857;SDS011;12935;50.782;6.074;2022-10-17T06:43:56;792.50;;;757.90;;
24857;SDS011;12935;50.782;6.074;2022-10-17T06:46:22;832.53;;;799.90;;
24857;SDS011;12935;50.782;6.074;2022-10-17T06:48:50;771.23;;;742.03;;
24857;SDS011;12935;50.782;6.074;2022-10-17T06:51:16;709.27;;;679.87;;
24857;SDS011;12935;50.782;6.074;2022-10-17T06:53:42;696.23;;;667.43;;
24857;SDS011;12935;50.782;6.074;2022-10-17T06:56:07;690.83;;;664.10;;
24857;SDS011;12935;50.782;6.074;2022-10-17T06:58:34;668.00;;;640.17;;
24857;SDS011;12935;50.782;6.074;2022-10-17T07:01:06;677.07;;;651.20;;
24857;SDS011;12935;50.782;6.074;2022-10-17T07:03:33;578.40;;;556.17;;
24857;SDS011;12935;50.782;6.074;2022-10-17T07:05:58;593.77;;;570.40;;
24857;SDS011;12935;50.782;6.074;2022-10-17T07:08:24;557.77;;;534.73;;
24857;SDS011;12935;50.782;6.074;2022-10-17T07:10:50;594.73;;;572.03;;
24857;SDS011;12935;50.782;6.074;2022-10-17T07:13:16;616.23;;;592.40;;
24857;SDS011;12935;50.782;6.074;2022-10-17T07:15:42;463.33;;;444.13;;
24857;SDS011;12935;50.782;6.074;2022-10-17T07:18:07;481.60;;;462.13;;
24857;SDS011;12935;50.782;6.074;2022-10-17T07:20:33;486.27;;;466.83;;
24857;SDS011;12935;50.782;6.074;2022-10-17T07:22:59;402.40;;;384.43;;
24857;SDS011;12935;50.782;6.074;2022-10-17T07:25:24;363.37;;;347.90;;
24857;SDS011;12935;50.782;6.074;2022-10-17T07:27:50;375.43;;;357.70;;
24857;SDS011;12935;50.782;6.074;2022-10-17T07:30:16;349.80;;;333.87;;
24857;SDS011;12935;50.782;6.074;2022-10-17T07:32:42;344.73;;;329.07;;
24857;SDS011;12935;50.782;6.074;2022-10-17T07:35:08;303.63;;;289.47;;
24857;SDS011;12935;50.782;6.074;2022-10-17T07:37:34;308.50;;;294.10;;
24857;SDS011;12935;50.782;6.074;2022-10-17T07:40:00;268.87;;;253.63;;
24857;SDS011;12935;50.782;6.074;2022-10-17T07:42:25;172.20;;;161.73;;
24857;SDS011;12935;50.782;6.074;2022-10-17T07:44:52;167.93;;;158.33;;
24857;SDS011;12935;50.782;6.074;2022-10-17T07:47:18;240.07;;;226.97;;
24857;SDS011;12935;50.782;6.074;2022-10-17T07:49:43;169.97;;;159.70;;
24857;SDS011;12935;50.782;6.074;2022-10-17T07:52:12;120.27;;;109.43;;
24857;SDS011;12935;50.782;6.074;2022-10-17T07:54:39;119.67;;;106.87;;
24857;SDS011;12935;50.782;6.074;2022-10-17T07:57:05;96.60;;;85.23;;
24857;SDS011;12935;50.782;6.074;2022-10-17T07:59:34;299.33;;;285.03;;
24857;SDS011;12935;50.782;6.074;2022-10-17T08:02:01;75.00;;;67.33;;
24857;SDS011;12935;50.782;6.074;2022-10-17T08:04:27;90.80;;;75.13;;
24857;SDS011;12935;50.782;6.074;2022-10-17T08:06:53;105.43;;;76.67;;
24857;SDS011;12935;50.782;6.074;2022-10-17T08:09:18;78.80;;;70.53;;
24857;SDS011;12935;50.782;6.074;2022-10-17T08:11:44;97.63;;;75.80;;
24857;SDS011;12935;50.782;6.074;2022-10-17T08:14:09;90.10;;;74.40;;
24857;SDS011;12935;50.782;6.074;2022-10-17T08:16:36;75.97;;;68.03;;
24857;SDS011;12935;50.782;6.074;2022-10-17T08:19:01;78.70;;;70.67;;
24857;SDS011;12935;50.782;6.074;2022-10-17T08:21:27;93.53;;;83.90;;
24857;SDS011;12935;50.782;6.074;2022-10-17T08:23:52;87.33;;;78.30;;
24857;SDS011;12935;50.782;6.074;2022-10-17T08:26:18;83.37;;;74.47;;
24857;SDS011;12935;50.782;6.074;2022-10-17T08:28:44;93.20;;;75.20;;
24857;SDS011;12935;50.782;6.074;2022-10-17T08:31:11;103.40;;;95.90;;
24857;SDS011;12935;50.782;6.074;2022-10-17T08:33:38;89.60;;;81.93;;
24857;SDS011;12935;50.782;6.074;2022-10-17T08:36:04;96.17;;;87.80;;
24857;SDS011;12935;50.782;6.074;2022-10-17T08:38:30;94.97;;;86.10;;
24857;SDS011;12935;50.782;6.074;2022-10-17T08:40:59;550.37;;;529.07;;
24857;SDS011;12935;50.782;6.074;2022-10-17T08:43:31;521.40;;;498.83;;
24857;SDS011;12935;50.782;6.074;2022-10-17T08:46:00;474.10;;;455.23;;
24857;SDS011;12935;50.782;6.074;2022-10-17T08:48:28;416.77;;;398.90;;
24857;SDS011;12935;50.782;6.074;2022-10-17T08:51:04;378.07;;;362.23;;
24857;SDS011;12935;50.782;6.074;2022-10-17T08:53:37;341.97;;;327.40;;
24857;SDS011;12935;50.782;6.074;2022-10-17T08:56:16;239.67;;;228.03;;
24857;SDS011;12935;50.782;6.074;2022-10-17T08:58:44;184.73;;;171.80;;
24857;SDS011;12935;50.782;6.074;2022-10-17T09:01:30;305.10;;;290.77;;
24857;SDS011;12935;50.782;6.074;2022-10-17T09:07:00;128.40;;;119.97;;
24857;SDS011;12935;50.782;6.074;2022-10-17T09:09:31;101.43;;;94.03;;
24857;SDS011;12935;50.782;6.074;2022-10-17T09:17:52;181.20;;;170.73;;
24857;SDS011;12935;50.782;6.074;2022-10-17T09:20:25;194.10;;;181.73;;
24857;SDS011;12935;50.782;6.074;2022-10-17T09:25:31;715.67;;;686.13;;
24857;SDS011;12935;50.782;6.074;2022-10-17T09:30:43;629.30;;;602.27;;
24857;SDS011;12935;50.782;6.074;2022-10-17T09:33:15;681.13;;;650.13;;
24857;SDS011;12935;50.782;6.074;2022-10-17T09:35:42;754.27;;;723.20;;
24857;SDS011;12935;50.782;6.074;2022-10-17T09:38:28;682.80;;;656.27;;
24857;SDS011;12935;50.782;6.074;2022-10-17T09:41:12;791.27;;;760.17;;
24857;SDS011;12935;50.782;6.074;2022-10-17T09:43:41;740.10;;;710.10;;
24857;SDS011;12935;50.782;6.074;2022-10-17T09:46:07;693.33;;;667.23;;
24857;SDS011;12935;50.782;6.074;2022-10-17T09:48:42;728.23;;;698.77;;
24857;SDS011;12935;50.782;6.074;2022-10-17T09:51:11;764.20;;;733.27;;
24857;SDS011;12935;50.782;6.074;2022-10-17T09:53:38;658.17;;;632.17;;
24857;SDS011;12935;50.782;6.074;2022-10-17T09:56:14;673.50;;;645.47;;
24857;SDS011;12935;50.782;6.074;2022-10-17T09:58:45;695.33;;;667.90;;
24857;SDS011;12935;50.782;6.074;2022-10-17T10:01:19;652.03;;;624.50;;
24857;SDS011;12935;50.782;6.074;2022-10-17T10:07:03;606.37;;;582.00;;
24857;SDS011;12935;50.782;6.074;2022-10-17T10:09:35;677.03;;;647.40;;
24857;SDS011;12935;50.782;6.074;2022-10-17T10:12:06;742.77;;;711.60;;
24857;SDS011;12935;50.782;6.074;2022-10-17T10:14:44;777.70;;;747.10;;
24857;SDS011;12935;50.782;6.074;2022-10-17T10:17:55;790.13;;;758.17;;
24857;SDS011;12935;50.782;6.074;2022-10-17T10:20:23;743.23;;;713.43;;
24857;SDS011;12935;50.782;6.074;2022-10-17T10:23:11;783.03;;;749.53;;
24857;SDS011;12935;50.782;6.074;2022-10-17T10:28:28;1036.17;;;991.60;;
24857;SDS011;12935;50.782;6.074;2022-10-17T10:31:03;853.23;;;814.87;;
24857;SDS011;12935;50.782;6.074;2022-10-17T10:33:32;829.33;;;795.90;;
24857;SDS011;12935;50.782;6.074;2022-10-17T10:36:04;833.77;;;798.83;;
24857;SDS011;12935;50.782;6.074;2022-10-17T10:38:32;860.73;;;826.27;;
24857;SDS011;12935;50.782;6.074;2022-10-17T10:41:08;864.20;;;829.27;;
24857;SDS011;12935;50.782;6.074;2022-10-17T10:46:04;939.70;;;900.07;;
24857;SDS011;12935;50.782;6.074;2022-10-17T10:48:39;937.27;;;896.90;;
24857;SDS011;12935;50.782;6.074;2022-10-17T10:51:34;999.83;;;956.73;;
24857;SDS011;12935;50.782;6.074;2022-10-17T10:54:16;1003.20;;;960.60;;
24857;SDS011;12935;50.782;6.074;2022-10-17T10:56:49;935.57;;;896.80;;
24857;SDS011;12935;50.782;6.074;2022-10-17T11:01:47;923.60;;;884.67;;
24857;SDS011;12935;50.782;6.074;2022-10-17T11:12:50;1022.17;;;977.97;;
24857;SDS011;12935;50.782;6.074;2022-10-17T11:18:17;1018.60;;;970.03;;
24857;SDS011;12935;50.782;6.074;2022-10-17T11:20:50;1069.10;;;999.90;;
24857;SDS011;12935;50.782;6.074;2022-10-17T11:23:39;1058.10;;;999.90;;
24857;SDS011;12935;50.782;6.074;2022-10-17T11:26:12;1051.27;;;999.90;;
24857;SDS011;12935;50.782;6.074;2022-10-17T11:28:49;1102.53;;;999.90;;
24857;SDS011;12935;50.782;6.074;2022-10-17T11:31:15;1113.67;;;999.90;;
24857;SDS011;12935;50.782;6.074;2022-10-17T11:34:25;1114.10;;;999.90;;
24857;SDS011;12935;50.782;6.074;2022-10-17T11:36:43;1083.00;;;999.90;;
24857;SDS011;12935;50.782;6.074;2022-10-17T11:39:22;1127.80;;;999.90;;
24857;SDS011;12935;50.782;6.074;2022-10-17T11:41:55;1127.70;;;999.90;;
24857;SDS011;12935;50.782;6.074;2022-10-17T11:47:06;1112.37;;;999.90;;
24857;SDS011;12935;50.782;6.074;2022-10-17T11:49:46;1141.87;;;999.90;;
24857;SDS011;12935;50.782;6.074;2022-10-17T11:55:17;1129.13;;;999.90;;
24857;SDS011;12935;50.782;6.074;2022-10-17T12:09:08;1117.63;;;999.90;;
24857;SDS011;12935;50.782;6.074;2022-10-17T12:11:59;1148.23;;;999.90;;
24857;SDS011;12935;50.782;6.074;2022-10-17T12:17:28;1126.53;;;999.90;;
24857;SDS011;12935;50.782;6.074;2022-10-17T12:22:47;1117.20;;;999.90;;
24857;SDS011;12935;50.782;6.074;2022-10-17T12:25:18;1107.63;;;999.90;;
24857;SDS011;12935;50.782;6.074;2022-10-17T12:30:31;1153.53;;;999.90;;
24857;SDS011;12935;50.782;6.074;2022-10-17T12:32:58;1151.60;;;999.90;;
24857;SDS011;12935;50.782;6.074;2022-10-17T12:35:26;1152.80;;;999.90;;
24857;SDS011;12935;50.782;6.074;2022-10-17T12:40:51;1157.43;;;999.90;;
24857;SDS011;12935;50.782;6.074;2022-10-17T12:45:58;1145.77;;;999.90;;
24857;SDS011;12935;50.782;6.074;2022-10-17T12:56:15;1073.03;;;999.90;;
24857;SDS011;12935;50.782;6.074;2022-10-17T12:58:43;1048.30;;;999.43;;
24857;SDS011;12935;50.782;6.074;2022-10-17T13:01:17;1087.57;;;999.90;;
24857;SDS011;12935;50.782;6.074;2022-10-17T13:03:51;1050.10;;;999.90;;
24857;SDS011;12935;50.782;6.074;2022-10-17T13:06:22;1037.70;;;993.17;;
24857;SDS011;12935;50.782;6.074;2022-10-17T13:08:55;1035.70;;;991.20;;
24857;SDS011;12935;50.782;6.074;2022-10-17T13:11:24;1038.87;;;994.53;;
24857;SDS011;12935;50.782;6.074;2022-10-17T13:13:53;1030.90;;;986.83;;
24857;SDS011;12935;50.782;6.074;2022-10-17T13:16:34;1001.93;;;960.57;;
24857;SDS011;12935;50.782;6.074;2022-10-17T13:19:03;1041.00;;;995.40;;
24857;SDS011;12935;50.782;6.074;2022-10-17T13:21:36;1059.07;;;999.90;;
24857;SDS011;12935;50.782;6.074;2022-10-17T13:24:18;1027.90;;;983.70;;
24857;SDS011;12935;50.782;6.074;2022-10-17T13:26:45;1038.57;;;991.17;;
24857;SDS011;12935;50.782;6.074;2022-10-17T13:29:12;1062.30;;;999.90;;
24857;SDS011;12935;50.782;6.074;2022-10-17T13:31:40;966.33;;;925.83;;
24857;SDS011;12935;50.782;6.074;2022-10-17T13:34:21;981.57;;;939.17;;
24857;SDS011;12935;50.782;6.074;2022-10-17T13:36:55;903.67;;;864.57;;
24857;SDS011;12935;50.782;6.074;2022-10-17T13:39:23;937.80;;;899.07;;
24857;SDS011;12935;50.782;6.074;2022-10-17T13:41:50;975.47;;;932.50;;
24857;SDS011;12935;50.782;6.074;2022-10-17T13:44:19;1011.37;;;966.23;;
24857;SDS011;12935;50.782;6.074;2022-10-17T13:46:47;973.93;;;930.50;;
24857;SDS011;12935;50.782;6.074;2022-10-17T13:49:21;859.33;;;824.67;;
24857;SDS011;12935;50.782;6.074;2022-10-17T13:51:54;835.70;;;801.83;;
24857;SDS011;12935;50.782;6.074;2022-10-17T13:54:29;844.87;;;809.63;;
24857;SDS011;12935;50.782;6.074;2022-10-17T13:56:58;805.57;;;772.60;;
24857;SDS011;12935;50.782;6.074;2022-10-17T13:59:30;815.87;;;782.97;;
24857;SDS011;12935;50.782;6.074;2022-10-17T14:02:00;996.23;;;954.70;;
24857;SDS011;12935;50.782;6.074;2022-10-17T14:04:26;988.63;;;947.27;;
24857;SDS011;12935;50.782;6.074;2022-10-17T14:06:52;960.27;;;920.47;;
24857;SDS011;12935;50.782;6.074;2022-10-17T14:09:22;918.10;;;878.87;;
24857;SDS011;12935;50.782;6.074;2022-10-17T14:12:05;928.77;;;890.03;;
24857;SDS011;12935;50.782;6.074;2022-10-17T14:14:36;923.10;;;884.80;;
24857;SDS011;12935;50.782;6.074;2022-10-17T14:17:11;902.13;;;866.07;;
24857;SDS011;12935;50.782;6.074;2022-10-17T14:19:49;881.90;;;846.03;;
24857;SDS011;12935;50.782;6.074;2022-10-17T14:22:22;952.77;;;910.40;;
24857;SDS011;12935;50.782;6.074;2022-10-17T14:24:51;902.53;;;864.27;;
24857;SDS011;12935;50.782;6.074;2022-10-17T14:27:24;862.70;;;827.50;;
24857;SDS011;12935;50.782;6.074;2022-10-17T14:29:55;1030.97;;;986.93;;
24857;SDS011;12935;50.782;6.074;2022-10-17T14:32:25;900.90;;;862.00;;
24857;SDS011;12935;50.782;6.074;2022-10-17T14:34:52;862.87;;;826.97;;
24857;SDS011;12935;50.782;6.074;2022-10-17T14:39:47;847.73;;;810.03;;
24857;SDS011;12935;50.782;6.074;2022-10-17T14:42:23;927.90;;;888.13;;
24857;SDS011;12935;50.782;6.074;2022-10-17T14:44:48;935.90;;;896.87;;
24857;SDS011;12935;50.782;6.074;2022-10-17T14:47:16;1017.80;;;972.60;;
24857;SDS011;12935;50.782;6.074;2022-10-17T14:49:47;908.20;;;870.03;;
24857;SDS011;12935;50.782;6.074;2022-10-17T14:54:39;956.87;;;915.53;;
24857;SDS011;12935;50.782;6.074;2022-10-17T14:59:52;883.70;;;846.57;;
24857;SDS011;12935;50.782;6.074;2022-10-17T15:02:19;988.97;;;943.20;;
24857;SDS011;12935;50.782;6.074;2022-10-17T15:04:45;962.60;;;922.47;;
24857;SDS011;12935;50.782;6.074;2022-10-17T15:07:14;915.83;;;877.53;;
24857;SDS011;12935;50.782;6.074;2022-10-17T15:09:41;971.73;;;929.70;;
24857;SDS011;12935;50.782;6.074;2022-10-17T15:12:10;1024.60;;;981.20;;
24857;SDS011;12935;50.782;6.074;2022-10-17T15:14:38;1060.63;;;999.90;;
24857;SDS011;12935;50.782;6.074;2022-10-17T15:17:08;1033.33;;;989.23;;
24857;SDS011;12935;50.782;6.074;2022-10-17T15:19:37;1068.23;;;999.90;;
24857;SDS011;12935;50.782;6.074;2022-10-17T15:22:02;1034.03;;;989.87;;
24857;SDS011;12935;50.782;6.074;2022-10-17T15:24:27;1037.47;;;992.70;;
24857;SDS011;12935;50.782;6.074;2022-10-17T15:26:52;1005.97;;;963.13;;
24857;SDS011;12935;50.782;6.074;2022-10-17T15:29:18;950.90;;;912.07;;
24857;SDS011;12935;50.782;6.074;2022-10-17T15:31:44;1089.13;;;999.90;;
24857;SDS011;12935;50.782;6.074;2022-10-17T15:34:09;1102.93;;;999.90;;
24857;SDS011;12935;50.782;6.074;2022-10-17T15:36:35;1014.63;;;968.00;;
24857;SDS011;12935;50.782;6.074;2022-10-17T15:39:04;1035.83;;;991.03;;
24857;SDS011;12935;50.782;6.074;2022-10-17T15:41:29;1045.07;;;998.67;;
24857;SDS011;12935;50.782;6.074;2022-10-17T15:43:56;1045.90;;;997.63;;
24857;SDS011;12935;50.782;6.074;2022-10-17T15:46:29;1020.93;;;976.83;;
24857;SDS011;12935;50.782;6.074;2022-10-17T15:49:00;989.17;;;946.97;;
24857;SDS011;12935;50.782;6.074;2022-10-17T15:51:27;930.87;;;891.70;;
24857;SDS011;12935;50.782;6.074;2022-10-17T15:53:52;909.03;;;872.37;;
24857;SDS011;12935;50.782;6.074;2022-10-17T15:56:19;865.80;;;830.73;;
24857;SDS011;12935;50.782;6.074;2022-10-17T15:58:46;895.20;;;858.93;;